Time;durP1;ratioP1;P1;durP2;ratioP2;P2;SDS_P1;SDS_P2;PMS_P1;PMS_P2;Temp;Humidity;BMP_temperature;BMP_pressure;BME280_temperature;BME280_humidity;BME280_pressure;Samples;Min_cycle;Max_cycle;Signal;HPM_P1;HPM_P2
2023/01/02 00:00:58;;;;;;;8.93;5.43;;;;;;;15.69;64.42;100918.09;6181096;23;20074;-69
2023/01/02 00:03:25;;;;;;;8.95;5.45;;;;;;;15.70;64.34;100906.28;6180818;23;20044;-68
2023/01/02 00:05:53;;;;;;;10.98;5.60;;;;;;;15.72;64.24;100901.56;6155148;23;20021;-68
2023/01/02 00:08:19;;;;;;;13.50;5.88;;;;;;;15.74;64.32;100902.28;6181281;23;20025;-69
2023/01/02 00:10:46;;;;;;;9.13;5.13;;;;;;;15.77;64.04;100901.16;6181267;23;20037;-70
2023/01/02 00:13:13;;;;;;;15.23;6.53;;;;;;;15.79;64.25;100894.59;6181141;23;20085;-69
2023/01/02 00:15:39;;;;;;;9.68;5.68;;;;;;;15.81;64.32;100898.00;6181069;23;20063;-69
2023/01/02 00:18:06;;;;;;;6.82;5.25;;;;;;;15.80;64.34;100898.16;6181192;23;20090;-69
2023/01/02 00:20:32;;;;;;;11.55;5.38;;;;;;;15.82;64.18;100904.28;6181036;23;20116;-69
2023/01/02 00:22:59;;;;;;;11.48;5.90;;;;;;;15.81;64.22;100903.44;6181344;23;20104;-69
2023/01/02 00:25:26;;;;;;;15.20;6.10;;;;;;;15.81;64.38;100908.00;6181111;23;20013;-69
2023/01/02 00:27:54;;;;;;;12.85;5.65;;;;;;;15.82;64.16;100902.44;6181248;23;20067;-69
2023/01/02 00:30:21;;;;;;;8.90;5.35;;;;;;;15.84;64.06;100892.31;6154869;23;20062;-69
2023/01/02 00:32:47;;;;;;;10.43;5.57;;;;;;;15.87;63.79;100888.47;6180914;23;20021;-69
2023/01/02 00:35:14;;;;;;;8.55;5.30;;;;;;;15.88;64.03;100879.34;6180567;23;20010;-69
2023/01/02 00:37:40;;;;;;;9.73;5.30;;;;;;;15.89;64.05;100879.19;6180797;23;20377;-69
2023/01/02 00:40:12;;;;;;;11.82;5.72;;;;;;;15.89;63.92;100875.63;6180933;23;20017;-69
2023/01/02 00:42:40;;;;;;;8.48;5.22;;;;;;;15.88;64.20;100877.50;6180952;23;20090;-69
2023/01/02 00:45:09;;;;;;;8.68;5.03;;;;;;;15.88;63.92;100880.19;6181119;23;20017;-69
2023/01/02 00:47:36;;;;;;;9.13;5.90;;;;;;;15.89;63.87;100876.50;6180958;23;20020;-69
2023/01/02 00:50:03;;;;;;;10.57;5.60;;;;;;;15.92;63.96;100877.22;6181059;23;20014;-69
2023/01/02 00:52:29;;;;;;;9.63;5.05;;;;;;;15.94;64.06;100872.50;6181000;23;20009;-69
2023/01/02 00:54:56;;;;;;;10.85;5.35;;;;;;;15.94;63.77;100875.22;6180952;23;20017;-69
2023/01/02 00:57:23;;;;;;;8.32;5.75;;;;;;;15.97;63.72;100866.81;6181021;23;20096;-69
2023/01/02 00:59:49;;;;;;;9.32;5.57;;;;;;;15.96;63.58;100865.09;6180901;23;20096;-69
2023/01/02 01:02:16;;;;;;;12.57;5.63;;;;;;;15.97;63.61;100866.81;6180578;23;20063;-69
2023/01/02 01:04:42;;;;;;;8.68;5.68;;;;;;;15.97;63.64;100861.38;6180762;23;20013;-69
2023/01/02 01:07:09;;;;;;;10.52;5.80;;;;;;;15.98;63.85;100861.25;6180570;23;20017;-69
2023/01/02 01:09:35;;;;;;;10.88;5.25;;;;;;;16.00;63.57;100863.81;6180660;23;20513;-70
2023/01/02 01:12:02;;;;;;;11.32;5.40;;;;;;;16.00;63.72;100850.25;6180537;23;20502;-69
2023/01/02 01:14:30;;;;;;;7.88;4.85;;;;;;;16.00;63.56;100851.13;6180738;23;20382;-69
2023/01/02 01:16:57;;;;;;;12.20;5.47;;;;;;;16.01;63.87;100851.97;6181801;23;20037;-69
2023/01/02 01:19:28;;;;;;;8.85;5.00;;;;;;;16.01;63.64;100849.25;6182018;23;20090;-69
2023/01/02 01:21:54;;;;;;;13.20;4.88;;;;;;;16.03;63.62;100849.97;6181964;23;20331;-71
2023/01/02 01:24:21;;;;;;;10.82;5.68;;;;;;;16.03;63.62;100849.97;6182095;23;20070;-70
2023/01/02 01:26:47;;;;;;;9.05;4.78;;;;;;;16.05;63.83;100843.41;6181986;23;20458;-69
2023/01/02 01:29:14;;;;;;;8.50;5.03;;;;;;;16.05;63.60;100842.56;6181738;23;20066;-69
2023/01/02 01:31:40;;;;;;;6.85;4.40;;;;;;;16.07;63.69;100848.69;6181966;23;20017;-70
2023/01/02 01:34:07;;;;;;;7.53;4.38;;;;;;;16.06;63.82;100847.81;6182150;23;20092;-69
2023/01/02 01:36:35;;;;;;;9.57;4.53;;;;;;;16.08;63.82;100847.69;6181981;23;20048;-69
2023/01/02 01:39:02;;;;;;;10.70;4.68;;;;;;;16.09;63.91;100850.25;6181680;23;20070;-70
2023/01/02 01:41:28;;;;;;;7.35;4.47;;;;;;;16.10;63.64;100857.38;6182072;23;20339;-69
2023/01/02 01:43:58;;;;;;;8.93;4.78;;;;;;;16.12;63.66;100858.09;6181836;23;20076;-69
2023/01/02 01:46:29;;;;;;;11.85;4.97;;;;;;;16.15;63.64;100856.94;6155871;23;20021;-68
2023/01/02 01:49:26;;;;;;;10.55;4.20;;;;;;;16.17;63.59;100863.06;6181993;23;20017;-69
2023/01/02 01:52:07;;;;;;;8.38;4.93;;;;;;;16.21;63.42;100865.34;6181811;23;20013;-68
2023/01/02 01:54:43;;;;;;;9.65;4.40;;;;;;;16.23;63.92;100861.63;6155851;23;20431;-69
2023/01/02 01:57:35;;;;;;;9.20;4.78;;;;;;;16.24;63.51;100858.78;6182091;23;20024;-70
2023/01/02 02:00:04;;;;;;;7.47;4.32;;;;;;;16.24;63.47;100860.63;6182051;23;20025;-69
2023/01/02 02:02:32;;;;;;;15.52;5.00;;;;;;;16.25;63.71;100865.91;6181774;23;20332;-69
2023/01/02 02:05:04;;;;;;;10.52;4.60;;;;;;;16.24;63.73;100869.63;6181849;23;20024;-69
2023/01/02 02:07:34;;;;;;;8.40;4.28;;;;;;;16.25;63.57;100868.63;6181874;23;20499;-68
2023/01/02 02:10:07;;;;;;;10.73;4.38;;;;;;;16.27;63.59;100865.78;6181996;23;20021;-69
2023/01/02 02:12:34;;;;;;;10.18;4.68;;;;;;;16.28;63.54;100862.91;6181680;23;20024;-68
2023/01/02 02:15:00;;;;;;;7.75;4.47;;;;;;;16.30;63.65;100858.19;6181982;22;20017;-69
2023/01/02 02:17:42;;;;;;;10.30;3.85;;;;;;;16.31;63.69;100859.06;6181842;23;20013;-69
2023/01/02 02:20:46;;;;;;;7.82;4.10;;;;;;;16.33;64.07;100867.91;6181948;23;20103;-69
2023/01/02 02:23:31;;;;;;;10.10;4.50;;;;;;;16.36;63.92;100870.34;6181725;23;20343;-69
2023/01/02 02:25:58;;;;;;;;;;;;;;;16.38;63.65;100865.63;6182841;23;20017;-69
2023/01/02 02:28:49;;;;;;;12.77;4.35;;;;;;;16.39;63.66;100859.22;6181818;23;19939;-68
2023/01/02 02:31:50;;;;;;;10.70;4.88;;;;;;;16.37;63.90;100864.78;6182080;23;20447;-68
2023/01/02 02:34:26;;;;;;;9.30;4.32;;;;;;;16.37;63.75;100859.34;6182151;23;20017;-69
2023/01/02 02:37:21;;;;;;;7.15;3.90;;;;;;;16.37;64.02;100858.50;6182180;22;20013;-69
2023/01/02 02:40:07;;;;;;;9.27;4.30;;;;;;;16.38;64.07;100862.94;6181819;23;20104;-69
2023/01/02 02:42:48;;;;;;;;;;;;;;;16.41;63.82;100868.06;6182187;23;20424;-68
2023/01/02 02:45:24;;;;;;;10.48;4.57;;;;;;;16.42;63.70;100870.63;6182284;23;19916;-68
2023/01/02 02:48:01;;;;;;;7.75;4.40;;;;;;;16.41;63.98;100859.91;6182104;23;20088;-69
2023/01/02 02:50:55;;;;;;;9.88;3.95;;;;;;;16.38;64.05;100854.78;6182084;23;20312;-69
2023/01/02 02:53:34;;;;;;;10.07;5.00;;;;;;;16.38;64.10;100852.09;6181739;23;20059;-69
2023/01/02 02:56:05;;;;;;;7.90;4.25;;;;;;;16.38;64.08;100861.06;6182158;23;20013;-68
2023/01/02 02:58:32;;;;;;;10.48;4.13;;;;;;;16.38;63.75;100866.50;6181703;23;20368;-69
2023/01/02 03:01:10;;;;;;;7.53;4.35;;;;;;;16.38;64.28;100858.34;6181551;23;20021;-69
2023/01/02 03:03:37;;;;;;;8.73;4.40;;;;;;;16.40;64.12;100860.91;6181761;23;20037;-69
2023/01/02 03:06:17;;;;;;;7.97;4.45;;;;;;;16.40;63.84;100859.06;6182173;23;20017;-70
2023/01/02 03:09:00;;;;;;;8.10;4.25;;;;;;;16.40;64.17;100861.78;6181963;23;20082;-70
2023/01/02 03:11:53;;;;;;;7.30;4.75;;;;;;;16.40;64.22;100867.19;6181916;23;20018;-69
2023/01/02 03:14:30;;;;;;;10.00;4.47;;;;;;;16.41;63.99;100865.34;6182285;23;20027;-69
2023/01/02 03:17:02;;;;;;;14.20;4.95;;;;;;;16.39;63.94;100862.78;6181846;23;20020;-69
2023/01/02 03:19:37;;;;;;;9.95;4.32;;;;;;;16.38;63.95;100862.94;6182011;22;20328;-69
2023/01/02 03:22:10;;;;;;;8.02;3.90;;;;;;;16.38;64.22;100852.09;6181570;23;20335;-69
2023/01/02 03:24:39;;;;;;;7.88;4.13;;;;;;;16.36;63.91;100857.66;6181675;23;20096;-69
2023/01/02 03:27:11;;;;;;;8.52;4.13;;;;;;;16.35;64.12;100860.47;6181949;23;20023;-69
2023/01/02 03:30:01;;;;;;;9.85;4.15;;;;;;;16.33;64.30;100852.50;6181989;23;20381;-69
2023/01/02 03:32:32;;;;;;;7.55;3.60;;;;;;;16.34;64.24;100853.34;6181440;23;20027;-69
2023/01/02 03:35:02;;;;;;;9.63;4.15;;;;;;;16.32;63.91;100845.34;6181527;23;20021;-69
2023/01/02 03:37:33;;;;;;;7.85;3.70;;;;;;;16.30;63.97;100847.34;6181559;23;20025;-69
2023/01/02 03:40:07;;;;;;;10.30;4.50;;;;;;;16.31;64.29;100848.22;6181572;23;20017;-69
2023/01/02 03:42:39;;;;;;;6.90;4.00;;;;;;;16.31;64.42;100857.19;6181510;23;20500;-69
2023/01/02 03:45:13;;;;;;;7.97;3.85;;;;;;;16.32;64.22;100861.63;6181613;23;20127;-69
2023/01/02 03:47:54;;;;;;;8.30;4.15;;;;;;;16.32;64.06;100858.06;6181805;23;20021;-69
2023/01/02 03:50:26;;;;;;;7.57;4.10;;;;;;;16.33;64.21;100866.03;6181416;23;20024;-69
2023/01/02 03:52:52;;;;;;;8.65;4.03;;;;;;;16.35;64.40;100872.19;6181464;23;20109;-69
2023/01/02 03:55:22;;;;;;;9.10;4.70;;;;;;;16.36;64.19;100873.91;6181175;23;20031;-70
2023/01/02 03:57:54;;;;;;;7.72;4.25;;;;;;;16.36;64.23;100876.63;6181703;23;20041;-70
2023/01/02 04:00:33;;;;;;;8.13;3.88;;;;;;;16.38;64.10;100876.47;6181466;23;20045;-70
2023/01/02 04:03:14;;;;;;;6.13;3.97;;;;;;;16.39;64.07;100878.19;6181239;23;20509;-69
2023/01/02 04:06:04;;;;;;;8.52;4.32;;;;;;;16.38;64.39;100881.91;6181317;23;20014;-69
2023/01/02 04:08:37;;;;;;;6.70;4.15;;;;;;;16.38;63.97;100871.91;6181009;23;20009;-69
2023/01/02 04:11:06;;;;;;;10.15;4.47;;;;;;;16.39;64.11;100881.75;6181333;23;20025;-69
2023/01/02 04:13:47;;;;;;;6.60;4.03;;;;;;;16.39;63.99;100883.59;6180847;23;20070;-69
2023/01/02 04:16:19;;;;;;;6.72;3.42;;;;;;;16.39;64.25;100884.47;6181967;23;20017;-69
2023/01/02 04:19:09;;;;;;;9.10;4.32;;;;;;;16.40;64.27;100888.03;6181421;23;20013;-69
2023/01/02 04:21:39;;;;;;;6.55;3.95;;;;;;;16.41;64.06;100887.88;6154766;23;20068;-69
2023/01/02 04:24:12;;;;;;;8.25;4.30;;;;;;;16.40;63.99;100883.47;6181103;23;20013;-69
2023/01/02 04:26:56;;;;;;;11.85;4.60;;;;;;;16.40;64.37;100888.03;6181145;23;20047;-69
2023/01/02 04:29:22;;;;;;;10.80;4.60;;;;;;;16.40;64.21;100897.00;6181421;23;20439;-69
2023/01/02 04:31:55;;;;;;;15.88;4.70;;;;;;;16.40;64.20;100894.31;6181155;23;20028;-69
2023/01/02 04:34:24;;;;;;;10.52;4.43;;;;;;;16.41;64.19;100898.72;6181217;23;20788;-69
2023/01/02 04:36:50;;;;;;;10.63;4.45;;;;;;;16.42;64.08;100908.56;6180937;23;20340;-69
2023/01/02 04:39:20;;;;;;;12.23;4.65;;;;;;;16.41;63.93;100897.88;6180852;23;20017;-70
2023/01/02 04:41:47;;;;;;;6.82;4.00;;;;;;;16.41;64.00;100904.16;6180962;23;20013;-69
2023/01/02 04:44:14;;;;;;;8.98;4.70;;;;;;;16.38;64.15;100904.44;6180869;23;20023;-69
2023/01/02 04:46:40;;;;;;;10.07;4.10;;;;;;;16.37;64.23;100900.00;6154612;23;20017;-69
2023/01/02 04:49:08;;;;;;;9.07;4.10;;;;;;;16.36;64.10;100901.00;6180927;23;20013;-70
2023/01/02 04:51:35;;;;;;;11.00;4.78;;;;;;;16.35;64.27;100895.72;6182149;23;20080;-70
2023/01/02 04:54:01;;;;;;;8.95;4.85;;;;;;;16.35;64.06;100904.72;6182214;23;20066;-68
2023/01/02 04:56:28;;;;;;;7.22;4.25;;;;;;;16.34;64.38;100905.69;6182593;23;20017;-68
2023/01/02 04:58:54;;;;;;;7.55;4.20;;;;;;;16.35;64.03;100909.25;6182336;23;20063;-68
2023/01/02 05:01:21;;;;;;;8.15;3.80;;;;;;;16.36;64.30;100905.59;6181946;23;20063;-69
2023/01/02 05:03:51;;;;;;;9.60;4.18;;;;;;;16.34;64.39;100913.81;6155906;23;20017;-69
2023/01/02 05:06:18;;;;;;;8.45;3.83;;;;;;;16.34;64.09;100915.69;6182734;23;20018;-69
2023/01/02 05:08:44;;;;;;;8.65;4.25;;;;;;;16.33;64.57;100906.69;6181992;23;20330;-69
2023/01/02 05:11:15;;;;;;;7.38;4.32;;;;;;;16.32;64.14;100914.97;6182618;23;20399;-69
2023/01/02 05:13:42;;;;;;;8.70;4.00;;;;;;;16.33;64.54;100930.22;6182158;23;20394;-69
2023/01/02 05:16:09;;;;;;;11.30;4.13;;;;;;;16.34;64.29;100924.66;6182127;23;20037;-68
2023/01/02 05:18:36;;;;;;;7.35;4.00;;;;;;;16.34;64.25;100924.66;6182188;23;20039;-68
2023/01/02 05:21:05;;;;;;;9.25;3.75;;;;;;;16.34;64.17;100929.22;6156003;23;20013;-69
2023/01/02 05:23:48;;;;;;;7.55;3.55;;;;;;;16.35;64.18;100930.94;6182305;23;20024;-69
2023/01/02 05:26:16;;;;;;;8.15;3.78;;;;;;;16.34;64.15;100932.78;6182529;23;20096;-69
2023/01/02 05:28:43;;;;;;;6.18;3.45;;;;;;;16.34;64.39;100929.22;6182259;23;20062;-69
2023/01/02 05:31:10;;;;;;;7.80;3.45;;;;;;;16.33;64.32;100931.09;6181958;23;20013;-69
2023/01/02 05:33:38;;;;;;;7.07;3.80;;;;;;;16.33;64.02;100933.78;6181825;23;20017;-69
2023/01/02 05:36:06;;;;;;;10.88;3.85;;;;;;;16.34;64.25;100938.22;6182097;23;20092;-68
2023/01/02 05:38:33;;;;;;;5.07;3.42;;;;;;;16.36;64.02;100938.09;6181991;23;20097;-69
2023/01/02 05:41:05;;;;;;;9.40;3.58;;;;;;;16.35;64.13;100939.97;6182036;23;20082;-68
2023/01/02 05:43:34;;;;;;;5.88;3.50;;;;;;;16.35;64.19;100936.38;6182398;23;20028;-69
2023/01/02 05:46:14;;;;;;;8.35;3.75;;;;;;;16.36;64.14;100951.66;6182139;23;20018;-69
2023/01/02 05:48:43;;;;;;;7.40;3.50;;;;;;;16.35;63.62;100953.50;6182027;23;20093;-69
2023/01/02 05:51:14;;;;;;;6.85;3.55;;;;;;;16.35;64.11;100953.50;6181974;23;20017;-69
2023/01/02 05:53:40;;;;;;;8.65;4.20;;;;;;;16.36;63.91;100954.38;6182483;22;20035;-68
2023/01/02 05:56:07;;;;;;;9.73;4.20;;;;;;;16.36;63.81;100960.66;6182338;23;20017;-70
2023/01/02 05:58:36;;;;;;;6.78;2.90;;;;;;;16.36;63.95;100960.66;6192278;23;20018;-69
2023/01/02 06:01:05;;;;;;;6.20;3.78;;;;;;;16.36;63.83;100962.50;6182331;23;20021;-71
2023/01/02 06:03:32;;;;;;;9.07;3.38;;;;;;;16.35;63.82;100961.66;6182109;23;20368;-70
2023/01/02 06:06:09;;;;;;;5.90;3.05;;;;;;;16.36;64.20;100960.66;6181896;23;20447;-69
2023/01/02 06:08:37;;;;;;;6.78;2.97;;;;;;;16.38;64.04;100964.06;6182353;23;20017;-70
2023/01/02 06:11:04;;;;;;;6.63;3.22;;;;;;;16.37;63.94;100965.06;6182150;23;20017;-69
2023/01/02 06:13:32;;;;;;;5.63;3.20;;;;;;;16.37;64.16;100966.91;6155325;23;20374;-70
2023/01/02 06:16:00;;;;;;;6.10;2.85;;;;;;;16.37;64.15;100962.34;6181824;23;20492;-70
2023/01/02 06:18:29;;;;;;;7.15;3.40;;;;;;;16.37;63.82;100973.19;6181924;23;20040;-69
2023/01/02 06:21:00;;;;;;;6.35;3.35;;;;;;;16.39;63.90;100978.47;6181648;23;20016;-70
2023/01/02 06:23:27;;;;;;;7.20;3.45;;;;;;;16.39;63.92;100976.63;6181858;23;20013;-70
2023/01/02 06:25:53;;;;;;;7.55;3.50;;;;;;;16.38;64.07;100982.19;6155374;23;20447;-70
2023/01/02 06:28:20;;;;;;;5.80;3.47;;;;;;;16.38;63.75;100980.34;6181818;23;20066;-70
2023/01/02 06:30:47;;;;;;;5.88;3.20;;;;;;;16.39;63.73;100992.03;6182154;23;20086;-70
2023/01/02 06:33:13;;;;;;;5.75;3.22;;;;;;;16.38;63.62;100996.59;6181491;23;20013;-70
2023/01/02 06:35:40;;;;;;;6.97;3.47;;;;;;;16.39;63.84;101002.88;6181607;23;20092;-70
2023/01/02 06:38:07;;;;;;;7.65;3.30;;;;;;;16.38;63.69;100995.75;6155325;23;20343;-72
2023/01/02 06:40:33;;;;;;;4.75;3.08;;;;;;;16.37;63.90;101007.59;6181570;23;20070;-70
2023/01/02 06:43:01;;;;;;;4.30;3.00;;;;;;;16.37;64.09;101016.56;6181510;23;20017;-71
2023/01/02 06:45:30;;;;;;;6.60;2.90;;;;;;;16.35;63.86;101007.72;6181511;23;20017;-71
2023/01/02 06:47:57;;;;;;;7.45;3.33;;;;;;;16.35;64.11;101006.84;6181601;23;20048;-69
2023/01/02 06:50:24;;;;;;;6.85;3.10;;;;;;;16.34;64.21;101013.25;6181466;23;20462;-69
2023/01/02 06:52:59;;;;;;;4.63;2.97;;;;;;;16.32;63.89;101020.66;6181366;22;20025;-69
2023/01/02 06:55:26;;;;;;;5.97;3.42;;;;;;;16.30;64.02;101034.38;6182083;23;20021;-70
2023/01/02 06:57:53;;;;;;;5.63;2.80;;;;;;;16.27;64.13;101075.28;6182084;23;20040;-70
2023/01/02 07:00:19;;;;;;;6.43;2.92;;;;;;;16.24;64.23;101091.84;6155392;23;20021;-69
2023/01/02 07:02:46;;;;;;;3.90;1.75;;;;;;;16.17;64.41;101090.69;6181311;23;20018;-69
2023/01/02 07:05:13;;;;;;;3.28;1.50;;;;;;;16.11;63.70;101104.78;6181974;23;20020;-69
2023/01/02 07:07:45;;;;;;;1.85;1.23;;;;;;;16.03;63.77;101100.06;6181856;23;20339;-69
2023/01/02 07:10:12;;;;;;;1.25;1.10;;;;;;;15.92;63.57;101115.56;6181526;23;20346;-69
2023/01/02 07:12:38;;;;;;;2.70;0.93;;;;;;;15.81;63.24;101130.91;6181042;23;20047;-69
2023/01/02 07:15:06;;;;;;;1.20;0.88;;;;;;;15.71;62.84;101138.13;6155666;23;20021;-68
2023/01/02 07:17:33;;;;;;;0.90;0.75;;;;;;;15.63;63.19;101150.63;6181769;23;20017;-69
2023/01/02 07:19:59;;;;;;;2.55;0.70;;;;;;;15.53;62.90;101161.34;6181383;23;20023;-69
2023/01/02 07:22:28;;;;;;;1.33;0.60;;;;;;;15.43;62.69;101153.16;6181216;22;20092;-69
2023/01/02 07:24:54;;;;;;;1.33;0.50;;;;;;;15.35;62.77;101168.34;6180902;23;20084;-69
2023/01/02 07:27:21;;;;;;;1.30;0.75;;;;;;;15.30;62.98;101176.84;6181199;23;20009;-69
2023/01/02 07:29:47;;;;;;;2.22;0.90;;;;;;;15.26;62.94;101178.97;6182063;23;20020;-69
2023/01/02 07:32:14;;;;;;;1.27;0.90;;;;;;;15.23;62.83;101186.50;6181251;23;20466;-69
2023/01/02 07:34:41;;;;;;;1.13;0.90;;;;;;;15.17;62.59;101201.41;6181952;23;20486;-69
2023/01/02 07:37:07;;;;;;;1.40;0.80;;;;;;;15.13;63.03;101207.19;6181475;23;20013;-69
2023/01/02 07:39:34;;;;;;;1.67;0.70;;;;;;;15.08;62.95;101213.00;6155083;23;20316;-68
2023/01/02 07:42:00;;;;;;;1.00;0.90;;;;;;;15.04;62.59;101216.09;6181073;23;20021;-69
2023/01/02 07:44:27;;;;;;;1.60;1.20;;;;;;;14.97;63.00;101228.41;6181275;23;20016;-69
2023/01/02 07:46:53;;;;;;;2.05;1.92;;;;;;;14.91;63.18;101221.66;6181374;23;20024;-68
2023/01/02 07:49:20;;;;;;;3.50;3.10;;;;;;;14.87;62.78;101229.16;6181465;23;20054;-69
2023/01/02 07:51:46;;;;;;;4.53;3.15;;;;;;;14.86;62.67;101237.38;6181259;23;20025;-69
2023/01/02 07:54:13;;;;;;;7.32;3.40;;;;;;;14.82;62.84;101236.78;6181548;23;20048;-69
2023/01/02 07:56:39;;;;;;;4.65;3.78;;;;;;;14.78;62.77;101254.25;6181301;23;20049;-68
2023/01/02 07:59:06;;;;;;;3.97;3.58;;;;;;;14.76;62.83;101260.75;6181194;23;20354;-68
2023/01/02 08:01:33;;;;;;;3.30;3.00;;;;;;;14.71;63.21;101260.28;6180785;23;20389;-68
2023/01/02 08:04:00;;;;;;;3.30;3.00;;;;;;;14.69;63.26;101264.94;6181206;23;20469;-68
2023/01/02 08:06:26;;;;;;;3.22;2.78;;;;;;;14.67;63.28;101280.44;6181522;23;20046;-68
2023/01/02 08:08:53;;;;;;;3.70;3.28;;;;;;;14.63;63.15;101280.69;6181266;23;20044;-70
2023/01/02 08:11:21;;;;;;;4.57;3.30;;;;;;;14.63;63.24;101290.63;6181241;23;20459;-68
2023/01/02 08:13:48;;;;;;;3.63;3.33;;;;;;;14.61;63.51;101292.59;6181234;23;20023;-68
2023/01/02 08:16:19;;;;;;;5.40;3.47;;;;;;;14.57;63.34;101294.69;6180577;22;20017;-68
2023/01/02 08:18:46;;;;;;;3.50;3.20;;;;;;;14.58;63.43;101300.97;6181401;22;20015;-68
2023/01/02 08:21:13;;;;;;;3.97;3.45;;;;;;;14.59;63.09;101306.25;6181073;23;20074;-68
2023/01/02 08:23:39;;;;;;;4.20;3.40;;;;;;;14.60;63.47;101321.47;6181192;23;20124;-69
2023/01/02 08:26:09;;;;;;;3.53;3.10;;;;;;;14.60;63.24;101321.47;6182584;23;20044;-69
2023/01/02 08:28:37;;;;;;;4.28;2.83;;;;;;;14.61;63.62;101330.44;6182702;23;20092;-68
2023/01/02 08:31:22;;;;;;;3.80;3.38;;;;;;;14.59;63.82;101332.41;6182505;23;20504;-68
2023/01/02 08:33:48;;;;;;;5.47;3.38;;;;;;;14.60;63.45;101332.28;6182363;23;20147;-68
2023/01/02 08:36:17;;;;;;;4.43;3.17;;;;;;;14.59;63.23;101341.38;6182464;23;20027;-68
2023/01/02 08:38:44;;;;;;;5.00;3.50;;;;;;;14.57;63.46;101350.59;6156463;23;20017;-68
2023/01/02 08:41:11;;;;;;;3.85;3.10;;;;;;;14.56;63.47;101347.03;6182892;23;20457;-68
2023/01/02 08:43:37;;;;;;;4.63;2.90;;;;;;;14.57;63.72;101356.88;6181955;23;20453;-69
2023/01/02 08:46:07;;;;;;;3.08;2.47;;;;;;;14.55;63.93;101355.25;6182003;22;20017;-68
2023/01/02 08:48:34;;;;;;;4.55;3.00;;;;;;;14.52;63.35;101364.47;6182328;23;20020;-69
2023/01/02 08:51:02;;;;;;;3.65;2.80;;;;;;;14.49;63.92;101370.13;6182089;23;20024;-69
2023/01/02 08:53:29;;;;;;;5.80;3.20;;;;;;;14.48;63.70;101368.41;6182149;23;20442;-69
2023/01/02 08:56:19;;;;;;;3.83;3.03;;;;;;;14.49;63.61;101378.22;6180919;23;20013;-69
2023/01/02 08:58:53;;;;;;;7.10;2.83;;;;;;;14.51;63.42;101389.78;6180000;23;20021;-69
2023/01/02 09:01:21;;;;;;;3.97;3.20;;;;;;;14.51;63.67;101389.78;6179622;23;20044;-69
2023/01/02 09:03:48;;;;;;;4.90;3.17;;;;;;;14.52;63.54;101387.94;6180009;23;20013;-69
2023/01/02 09:06:15;;;;;;;5.88;3.33;;;;;;;14.52;63.90;101391.50;6180012;23;20039;-68
2023/01/02 09:08:47;;;;;;;3.80;3.10;;;;;;;14.51;63.73;101395.19;6179948;23;20013;-68
2023/01/02 09:11:17;;;;;;;5.55;3.05;;;;;;;14.49;63.91;101409.81;6181591;23;20032;-69
2023/01/02 09:13:44;;;;;;;4.85;3.28;;;;;;;14.45;63.63;101406.47;6182016;23;20439;-69
2023/01/02 09:16:11;;;;;;;6.35;3.25;;;;;;;14.47;63.60;101414.47;6181974;23;20029;-67
2023/01/02 09:18:39;;;;;;;3.58;2.90;;;;;;;14.45;63.88;101405.63;6181519;22;20043;-69
2023/01/02 09:21:06;;;;;;;4.50;3.10;;;;;;;14.43;63.53;101408.44;6181940;23;20017;-69
2023/01/02 09:23:34;;;;;;;3.55;3.10;;;;;;;14.41;63.72;101418.47;6182040;22;20033;-69
2023/01/02 09:26:04;;;;;;;4.40;3.10;;;;;;;14.40;63.99;101427.56;6182257;23;20062;-69
2023/01/02 09:28:32;;;;;;;3.63;3.13;;;;;;;14.39;63.65;101433.94;6181893;23;20463;-69
2023/01/02 09:31:02;;;;;;;3.80;3.38;;;;;;;14.37;63.81;101443.16;6181987;23;20470;-68
2023/01/02 09:33:38;;;;;;;4.00;3.60;;;;;;;14.36;63.60;101445.00;6182017;23;20059;-69
2023/01/02 09:36:07;;;;;;;3.85;3.45;;;;;;;14.36;63.82;101458.50;6181760;23;20017;-69
2023/01/02 09:38:34;;;;;;;4.80;3.28;;;;;;;14.36;63.94;101469.31;6181924;23;20040;-69
2023/01/02 09:41:09;;;;;;;5.28;3.58;;;;;;;14.33;63.42;101477.66;6182034;23;20021;-70
2023/01/02 09:43:47;;;;;;;5.43;4.38;;;;;;;14.32;63.70;101490.31;6182079;23;20021;-69
2023/01/02 09:46:31;;;;;;;4.53;3.45;;;;;;;14.32;63.85;101471.41;6182346;23;20036;-69
2023/01/02 09:49:00;;;;;;;7.03;4.47;;;;;;;14.34;63.93;101482.09;6182291;23;20096;-69
2023/01/02 09:51:27;;;;;;;6.38;4.65;;;;;;;14.33;63.93;101493.88;6182111;23;20041;-69
2023/01/02 09:53:54;;;;;;;9.68;5.35;;;;;;;14.32;63.97;101495.72;6155984;23;20088;-68
2023/01/02 09:56:27;;;;;;;6.80;5.45;;;;;;;14.34;63.89;101501.00;6182120;23;20013;-69
2023/01/02 09:59:11;;;;;;;6.75;5.28;;;;;;;14.38;63.63;101498.94;6182244;23;20018;-68
2023/01/02 10:01:56;;;;;;;6.85;5.70;;;;;;;14.41;63.82;101491.44;6181761;23;20013;-69
2023/01/02 10:04:40;;;;;;;7.88;5.57;;;;;;;14.44;63.79;101504.75;6182080;23;20492;-68
2023/01/02 10:07:16;;;;;;;8.05;6.10;;;;;;;14.46;63.94;101494.69;6182570;23;20518;-69
2023/01/02 10:10:14;;;;;;;6.85;5.70;;;;;;;14.46;63.58;101499.22;6181934;23;20450;-69
2023/01/02 10:13:03;;;;;;;6.80;4.97;;;;;;;14.48;63.86;101490.03;6181833;23;20017;-69
2023/01/02 10:15:30;;;;;;;5.88;4.90;;;;;;;14.49;63.70;101491.75;6182229;23;20386;-68
2023/01/02 10:18:03;;;;;;;5.97;4.93;;;;;;;14.49;63.59;101489.03;6182293;23;20040;-68
2023/01/02 10:20:37;;;;;;;5.05;4.30;;;;;;;14.51;63.57;101497.03;6180455;22;20431;-70
2023/01/02 10:23:26;;;;;;;7.88;5.63;;;;;;;14.52;63.30;101512.28;6181144;23;20017;-69
2023/01/02 10:25:59;;;;;;;22.08;6.50;;;;;;;14.52;63.30;101521.25;6181569;23;20020;-69
2023/01/02 10:28:50;;;;;;;15.00;5.32;;;;;;;14.49;63.21;101518.78;6181456;23;20033;-69
2023/01/02 10:31:30;;;;;;;26.17;7.60;;;;;;;14.48;62.99;101513.50;6182213;23;20021;-68
2023/01/02 10:33:59;;;;;;;15.75;5.22;;;;;;;14.45;63.22;101509.19;6181083;23;20017;-68
2023/01/02 10:36:39;;;;;;;8.20;4.68;;;;;;;14.43;63.16;101510.28;6181725;23;20501;-69
2023/01/02 10:39:10;;;;;;;9.50;4.65;;;;;;;14.40;62.91;101505.06;6181662;23;20428;-68
2023/01/02 10:41:38;;;;;;;12.38;4.95;;;;;;;14.38;63.01;101505.19;6181326;23;20028;-69
2023/01/02 10:44:26;;;;;;;9.18;4.22;;;;;;;14.40;62.80;101505.06;6181891;23;20039;-69
2023/01/02 10:46:55;;;;;;;15.65;5.75;;;;;;;14.42;63.24;101509.41;6181777;23;20024;-70
2023/01/02 10:49:24;;;;;;;11.88;4.40;;;;;;;14.44;62.98;101520.09;6181688;23;20100;-69
2023/01/02 10:52:21;;;;;;;10.20;5.03;;;;;;;14.46;63.26;101520.84;6181480;23;20017;-70
2023/01/02 10:54:49;;;;;;;6.40;4.38;;;;;;;14.49;62.81;101517.91;6182262;23;20379;-69
2023/01/02 10:57:32;;;;;;;9.45;4.53;;;;;;;14.50;63.01;101528.59;6181738;23;20041;-70
2023/01/02 11:00:00;;;;;;;6.95;4.57;;;;;;;14.50;62.80;101535.84;6181523;23;20017;-69
2023/01/02 11:02:36;;;;;;;6.18;4.53;;;;;;;14.51;63.08;101529.47;6181043;23;20108;-69
2023/01/02 11:05:16;;;;;;;7.15;5.22;;;;;;;14.49;62.88;101526.03;6181677;23;20447;-69
2023/01/02 11:07:47;;;;;;;7.50;5.30;;;;;;;14.48;62.73;101525.16;6181794;23;20017;-69
2023/01/02 11:10:32;;;;;;;8.23;5.28;;;;;;;14.47;62.49;101522.56;6181730;23;20051;-69
2023/01/02 11:13:12;;;;;;;6.68;4.93;;;;;;;14.48;62.50;101541.38;6181298;23;20398;-70
2023/01/02 11:16:03;;;;;;;7.55;4.97;;;;;;;14.48;62.53;101545.91;6182157;22;20013;-69
2023/01/02 11:18:32;;;;;;;7.50;5.15;;;;;;;14.48;62.63;101549.47;6180802;23;20024;-70
2023/01/02 11:21:04;;;;;;;6.80;4.80;;;;;;;14.49;62.38;101553.91;6155152;23;20084;-69
2023/01/02 11:23:38;;;;;;;5.15;4.15;;;;;;;14.49;62.38;101553.06;6181574;23;20013;-70
2023/01/02 11:26:22;;;;;;;6.90;5.07;;;;;;;14.49;62.34;101555.75;6181712;23;20086;-70
2023/01/02 11:28:52;;;;;;;7.38;4.88;;;;;;;14.49;62.44;101562.03;6181619;23;20111;-70
2023/01/02 11:31:21;;;;;;;6.53;4.53;;;;;;;14.50;62.51;101569.16;6181865;22;20094;-70
2023/01/02 11:33:48;;;;;;;6.65;4.80;;;;;;;14.51;62.65;101573.56;6181359;23;20017;-71
2023/01/02 11:36:17;;;;;;;8.75;5.72;;;;;;;14.50;62.57;101569.16;6181503;23;20017;-69
2023/01/02 11:38:57;;;;;;;7.32;5.85;;;;;;;14.50;62.10;101573.69;6181096;23;20036;-69
2023/01/02 11:44:51;;;;;;;10.35;6.28;;;;;;;14.53;62.20;101579.72;6155171;23;20078;-69
2023/01/02 11:47:30;;;;;;;7.88;5.47;;;;;;;14.53;62.55;101574.31;6181354;23;20017;-70